sensor_id;sensor_type;location;lat;lon;timestamp;temperature;humidity
54461;DHT22;69977;49.414;11.010;2023-12-28T00:01:22;1.10;99.90
54461;DHT22;69977;49.414;11.010;2023-12-28T00:03:48;1.30;99.90
54461;DHT22;69977;49.414;11.010;2023-12-28T00:06:14;1.50;99.90
54461;DHT22;69977;49.414;11.010;2023-12-28T00:08:40;1.40;99.90
54461;DHT22;69977;49.414;11.010;2023-12-28T00:11:06;1.10;99.90
54461;DHT22;69977;49.414;11.010;2023-12-28T00:13:32;1.10;99.90
54461;DHT22;69977;49.414;11.010;2023-12-28T00:15:58;0.90;99.90
54461;DHT22;69977;49.414;11.010;2023-12-28T00:18:24;1.00;99.90
54461;DHT22;69977;49.414;11.010;2023-12-28T00:20:50;1.00;99.90
54461;DHT22;69977;49.414;11.010;2023-12-28T00:23:17;1.00;99.90
54461;DHT22;69977;49.414;11.010;2023-12-28T00:25:43;1.00;99.90
54461;DHT22;69977;49.414;11.010;2023-12-28T00:28:09;0.90;99.90
54461;DHT22;69977;49.414;11.010;2023-12-28T00:30:35;0.90;99.90
54461;DHT22;69977;49.414;11.010;2023-12-28T00:33:00;0.90;99.90
54461;DHT22;69977;49.414;11.010;2023-12-28T00:35:26;0.80;99.90
54461;DHT22;69977;49.414;11.010;2023-12-28T00:37:54;0.80;99.90
54461;DHT22;69977;49.414;11.010;2023-12-28T00:40:19;0.80;99.90
54461;DHT22;69977;49.414;11.010;2023-12-28T00:42:48;0.70;99.90
54461;DHT22;69977;49.414;11.010;2023-12-28T00:45:14;0.90;99.90
54461;DHT22;69977;49.414;11.010;2023-12-28T00:47:40;1.00;99.90
54461;DHT22;69977;49.414;11.010;2023-12-28T00:50:09;1.20;99.90
54461;DHT22;69977;49.414;11.010;2023-12-28T00:52:41;0.90;99.90
54461;DHT22;69977;49.414;11.010;2023-12-28T00:55:07;0.80;99.90
54461;DHT22;69977;49.414;11.010;2023-12-28T00:57:33;0.70;99.90
54461;DHT22;69977;49.414;11.010;2023-12-28T01:00:00;0.60;99.90
54461;DHT22;69977;49.414;11.010;2023-12-28T01:02:26;0.70;99.90
54461;DHT22;69977;49.414;11.010;2023-12-28T01:04:53;0.60;99.90
54461;DHT22;69977;49.414;11.010;2023-12-28T01:07:19;0.60;99.90
54461;DHT22;69977;49.414;11.010;2023-12-28T01:09:45;0.70;99.90
54461;DHT22;69977;49.414;11.010;2023-12-28T01:12:11;0.80;99.90
54461;DHT22;69977;49.414;11.010;2023-12-28T01:14:37;1.00;99.90
54461;DHT22;69977;49.414;11.010;2023-12-28T01:17:03;0.90;99.90
54461;DHT22;69977;49.414;11.010;2023-12-28T01:19:28;1.00;99.90
54461;DHT22;69977;49.414;11.010;2023-12-28T01:21:54;1.10;99.90
54461;DHT22;69977;49.414;11.010;2023-12-28T01:24:20;1.20;99.90
54461;DHT22;69977;49.414;11.010;2023-12-28T01:26:46;1.20;99.90
54461;DHT22;69977;49.414;11.010;2023-12-28T01:29:12;1.20;99.90
54461;DHT22;69977;49.414;11.010;2023-12-28T01:31:38;1.10;99.90
54461;DHT22;69977;49.414;11.010;2023-12-28T01:34:05;1.10;99.90
54461;DHT22;69977;49.414;11.010;2023-12-28T01:36:32;1.20;99.90
54461;DHT22;69977;49.414;11.010;2023-12-28T01:38:59;1.20;99.90
54461;DHT22;69977;49.414;11.010;2023-12-28T01:41:25;1.20;99.90
54461;DHT22;69977;49.414;11.010;2023-12-28T01:43:51;1.20;99.90
54461;DHT22;69977;49.414;11.010;2023-12-28T01:46:19;1.30;99.90
54461;DHT22;69977;49.414;11.010;2023-12-28T01:48:48;1.30;99.90
54461;DHT22;69977;49.414;11.010;2023-12-28T01:51:15;1.10;99.90
54461;DHT22;69977;49.414;11.010;2023-12-28T01:53:45;1.20;99.90
54461;DHT22;69977;49.414;11.010;2023-12-28T01:56:12;1.10;99.90
54461;DHT22;69977;49.414;11.010;2023-12-28T01:58:40;1.10;99.90
54461;DHT22;69977;49.414;11.010;2023-12-28T02:01:07;1.10;99.90
54461;DHT22;69977;49.414;11.010;2023-12-28T02:03:33;1.10;99.90
54461;DHT22;69977;49.414;11.010;2023-12-28T02:06:00;1.00;99.90
54461;DHT22;69977;49.414;11.010;2023-12-28T02:08:28;1.00;99.90
54461;DHT22;69977;49.414;11.010;2023-12-28T02:10:54;0.90;99.90
54461;DHT22;69977;49.414;11.010;2023-12-28T02:13:21;0.90;99.90
54461;DHT22;69977;49.414;11.010;2023-12-28T02:15:53;0.90;99.90
54461;DHT22;69977;49.414;11.010;2023-12-28T02:18:22;0.80;99.90
54461;DHT22;69977;49.414;11.010;2023-12-28T02:20:49;0.90;99.90
54461;DHT22;69977;49.414;11.010;2023-12-28T02:23:16;0.90;99.90
54461;DHT22;69977;49.414;11.010;2023-12-28T02:25:43;0.90;99.90
54461;DHT22;69977;49.414;11.010;2023-12-28T02:28:09;0.80;99.90
54461;DHT22;69977;49.414;11.010;2023-12-28T02:30:35;0.80;99.90
54461;DHT22;69977;49.414;11.010;2023-12-28T02:33:34;0.90;99.90
54461;DHT22;69977;49.414;11.010;2023-12-28T02:36:04;0.80;99.90
54461;DHT22;69977;49.414;11.010;2023-12-28T02:38:33;0.90;99.90
54461;DHT22;69977;49.414;11.010;2023-12-28T02:41:01;0.90;99.90
54461;DHT22;69977;49.414;11.010;2023-12-28T02:43:27;0.90;99.90
54461;DHT22;69977;49.414;11.010;2023-12-28T02:45:53;0.80;99.90
54461;DHT22;69977;49.414;11.010;2023-12-28T02:48:19;0.80;99.90
54461;DHT22;69977;49.414;11.010;2023-12-28T02:50:45;0.80;99.90
54461;DHT22;69977;49.414;11.010;2023-12-28T02:53:12;0.80;99.90
54461;DHT22;69977;49.414;11.010;2023-12-28T02:55:38;0.80;99.90
54461;DHT22;69977;49.414;11.010;2023-12-28T02:58:04;0.80;99.90
54461;DHT22;69977;49.414;11.010;2023-12-28T03:00:30;0.80;99.90
54461;DHT22;69977;49.414;11.010;2023-12-28T03:02:56;0.80;99.90
54461;DHT22;69977;49.414;11.010;2023-12-28T03:05:22;0.90;99.90
54461;DHT22;69977;49.414;11.010;2023-12-28T03:07:48;0.90;99.90
54461;DHT22;69977;49.414;11.010;2023-12-28T03:10:14;1.00;99.90
54461;DHT22;69977;49.414;11.010;2023-12-28T03:12:40;0.90;99.90
54461;DHT22;69977;49.414;11.010;2023-12-28T03:15:06;0.90;99.90
54461;DHT22;69977;49.414;11.010;2023-12-28T03:17:33;1.10;99.90
54461;DHT22;69977;49.414;11.010;2023-12-28T03:19:59;1.00;99.90
54461;DHT22;69977;49.414;11.010;2023-12-28T03:22:25;0.90;99.90
54461;DHT22;69977;49.414;11.010;2023-12-28T03:24:51;0.90;99.90
54461;DHT22;69977;49.414;11.010;2023-12-28T03:27:17;1.00;99.90
54461;DHT22;69977;49.414;11.010;2023-12-28T03:29:43;1.00;99.90
54461;DHT22;69977;49.414;11.010;2023-12-28T03:32:10;1.00;99.90
54461;DHT22;69977;49.414;11.010;2023-12-28T03:34:36;1.10;99.90
54461;DHT22;69977;49.414;11.010;2023-12-28T03:37:03;1.10;99.90
54461;DHT22;69977;49.414;11.010;2023-12-28T03:39:29;1.00;99.90
54461;DHT22;69977;49.414;11.010;2023-12-28T03:41:55;1.10;99.90
54461;DHT22;69977;49.414;11.010;2023-12-28T03:44:21;1.10;99.90
54461;DHT22;69977;49.414;11.010;2023-12-28T03:46:48;1.10;99.90
54461;DHT22;69977;49.414;11.010;2023-12-28T03:49:19;1.00;99.90
54461;DHT22;69977;49.414;11.010;2023-12-28T03:51:45;1.00;99.90
54461;DHT22;69977;49.414;11.010;2023-12-28T03:54:11;1.00;99.90
54461;DHT22;69977;49.414;11.010;2023-12-28T03:56:37;0.80;99.90
54461;DHT22;69977;49.414;11.010;2023-12-28T03:59:06;0.90;99.90
54461;DHT22;69977;49.414;11.010;2023-12-28T04:01:33;0.90;99.90
54461;DHT22;69977;49.414;11.010;2023-12-28T04:03:59;1.00;99.90
54461;DHT22;69977;49.414;11.010;2023-12-28T04:06:25;0.90;99.90
54461;DHT22;69977;49.414;11.010;2023-12-28T04:08:50;0.90;99.90
54461;DHT22;69977;49.414;11.010;2023-12-28T04:11:16;0.80;99.90
54461;DHT22;69977;49.414;11.010;2023-12-28T04:13:42;0.80;99.90
54461;DHT22;69977;49.414;11.010;2023-12-28T04:16:11;1.00;99.90
54461;DHT22;69977;49.414;11.010;2023-12-28T04:18:37;1.00;99.90
54461;DHT22;69977;49.414;11.010;2023-12-28T04:21:03;1.00;99.90
54461;DHT22;69977;49.414;11.010;2023-12-28T04:23:29;1.10;99.90
54461;DHT22;69977;49.414;11.010;2023-12-28T04:25:55;1.00;99.90
54461;DHT22;69977;49.414;11.010;2023-12-28T04:28:21;1.00;99.90
54461;DHT22;69977;49.414;11.010;2023-12-28T04:30:47;1.10;99.90
54461;DHT22;69977;49.414;11.010;2023-12-28T04:33:17;1.20;99.90
54461;DHT22;69977;49.414;11.010;2023-12-28T04:35:43;1.40;99.90
54461;DHT22;69977;49.414;11.010;2023-12-28T04:38:09;1.50;99.90
54461;DHT22;69977;49.414;11.010;2023-12-28T04:40:35;1.50;99.90
54461;DHT22;69977;49.414;11.010;2023-12-28T04:43:01;1.50;99.90
54461;DHT22;69977;49.414;11.010;2023-12-28T04:45:27;1.60;99.90
54461;DHT22;69977;49.414;11.010;2023-12-28T04:47:53;1.70;99.90
54461;DHT22;69977;49.414;11.010;2023-12-28T04:50:19;1.80;99.90
54461;DHT22;69977;49.414;11.010;2023-12-28T04:52:45;1.80;99.90
54461;DHT22;69977;49.414;11.010;2023-12-28T04:55:11;1.90;99.90
54461;DHT22;69977;49.414;11.010;2023-12-28T04:57:36;1.80;99.90
54461;DHT22;69977;49.414;11.010;2023-12-28T05:00:03;1.90;99.90
54461;DHT22;69977;49.414;11.010;2023-12-28T05:02:29;1.80;99.90
54461;DHT22;69977;49.414;11.010;2023-12-28T05:04:55;1.80;99.90
54461;DHT22;69977;49.414;11.010;2023-12-28T05:07:21;1.80;99.90
54461;DHT22;69977;49.414;11.010;2023-12-28T05:09:46;1.70;99.90
54461;DHT22;69977;49.414;11.010;2023-12-28T05:12:12;1.70;99.90
54461;DHT22;69977;49.414;11.010;2023-12-28T05:14:38;1.70;99.90
54461;DHT22;69977;49.414;11.010;2023-12-28T05:17:04;1.70;99.90
54461;DHT22;69977;49.414;11.010;2023-12-28T05:19:30;1.70;99.90
54461;DHT22;69977;49.414;11.010;2023-12-28T05:21:55;1.80;99.90
54461;DHT22;69977;49.414;11.010;2023-12-28T05:24:21;1.80;99.90
54461;DHT22;69977;49.414;11.010;2023-12-28T05:26:47;2.00;99.90
54461;DHT22;69977;49.414;11.010;2023-12-28T05:29:13;2.20;99.90
54461;DHT22;69977;49.414;11.010;2023-12-28T05:31:39;2.30;99.90
54461;DHT22;69977;49.414;11.010;2023-12-28T05:34:04;2.20;99.90
54461;DHT22;69977;49.414;11.010;2023-12-28T05:36:31;2.10;99.90
54461;DHT22;69977;49.414;11.010;2023-12-28T05:38:57;2.20;99.90
54461;DHT22;69977;49.414;11.010;2023-12-28T05:41:23;2.20;99.90
54461;DHT22;69977;49.414;11.010;2023-12-28T05:43:50;2.20;99.90
54461;DHT22;69977;49.414;11.010;2023-12-28T05:46:16;2.10;99.90
54461;DHT22;69977;49.414;11.010;2023-12-28T05:48:41;2.30;99.90
54461;DHT22;69977;49.414;11.010;2023-12-28T05:51:07;2.30;99.90
54461;DHT22;69977;49.414;11.010;2023-12-28T05:53:33;2.30;99.90
54461;DHT22;69977;49.414;11.010;2023-12-28T05:56:00;2.20;99.90
54461;DHT22;69977;49.414;11.010;2023-12-28T05:58:29;2.30;99.90
54461;DHT22;69977;49.414;11.010;2023-12-28T06:00:55;2.30;99.90
54461;DHT22;69977;49.414;11.010;2023-12-28T06:03:21;2.30;99.90
54461;DHT22;69977;49.414;11.010;2023-12-28T06:05:47;2.40;99.90
54461;DHT22;69977;49.414;11.010;2023-12-28T06:08:12;2.50;99.90
54461;DHT22;69977;49.414;11.010;2023-12-28T06:10:38;2.40;99.90
54461;DHT22;69977;49.414;11.010;2023-12-28T06:13:04;2.40;99.90
54461;DHT22;69977;49.414;11.010;2023-12-28T06:15:32;2.50;99.90
54461;DHT22;69977;49.414;11.010;2023-12-28T06:17:58;2.50;99.90
54461;DHT22;69977;49.414;11.010;2023-12-28T06:20:24;2.60;99.90
54461;DHT22;69977;49.414;11.010;2023-12-28T06:22:50;2.70;99.90
54461;DHT22;69977;49.414;11.010;2023-12-28T06:25:16;2.80;99.90
54461;DHT22;69977;49.414;11.010;2023-12-28T06:27:41;2.90;99.90
54461;DHT22;69977;49.414;11.010;2023-12-28T06:30:07;2.90;99.90
54461;DHT22;69977;49.414;11.010;2023-12-28T06:32:33;2.90;99.90
54461;DHT22;69977;49.414;11.010;2023-12-28T06:34:59;2.90;99.90
54461;DHT22;69977;49.414;11.010;2023-12-28T06:37:25;3.00;99.90
54461;DHT22;69977;49.414;11.010;2023-12-28T06:39:51;3.00;99.90
54461;DHT22;69977;49.414;11.010;2023-12-28T06:42:17;3.00;99.90
54461;DHT22;69977;49.414;11.010;2023-12-28T06:44:43;3.00;99.90
54461;DHT22;69977;49.414;11.010;2023-12-28T06:47:08;3.00;99.90
54461;DHT22;69977;49.414;11.010;2023-12-28T06:49:34;3.00;99.90
54461;DHT22;69977;49.414;11.010;2023-12-28T06:52:00;3.10;99.90
54461;DHT22;69977;49.414;11.010;2023-12-28T06:54:26;3.30;99.90
54461;DHT22;69977;49.414;11.010;2023-12-28T06:56:52;3.30;99.90
54461;DHT22;69977;49.414;11.010;2023-12-28T06:59:18;3.30;99.90
54461;DHT22;69977;49.414;11.010;2023-12-28T07:01:43;3.40;99.90
54461;DHT22;69977;49.414;11.010;2023-12-28T07:04:14;3.40;99.90
54461;DHT22;69977;49.414;11.010;2023-12-28T07:06:40;3.40;99.90
54461;DHT22;69977;49.414;11.010;2023-12-28T07:09:06;3.50;99.90
54461;DHT22;69977;49.414;11.010;2023-12-28T07:11:31;3.50;99.90
54461;DHT22;69977;49.414;11.010;2023-12-28T07:13:57;3.50;99.90
54461;DHT22;69977;49.414;11.010;2023-12-28T07:16:23;3.50;99.90
54461;DHT22;69977;49.414;11.010;2023-12-28T07:18:49;3.50;99.90
54461;DHT22;69977;49.414;11.010;2023-12-28T07:21:15;3.60;99.90
54461;DHT22;69977;49.414;11.010;2023-12-28T07:23:41;3.60;99.90
54461;DHT22;69977;49.414;11.010;2023-12-28T07:26:06;3.60;99.90
54461;DHT22;69977;49.414;11.010;2023-12-28T07:28:32;3.60;99.90
54461;DHT22;69977;49.414;11.010;2023-12-28T07:30:59;3.60;99.90
54461;DHT22;69977;49.414;11.010;2023-12-28T07:33:25;3.70;99.90
54461;DHT22;69977;49.414;11.010;2023-12-28T07:35:51;3.70;99.90
54461;DHT22;69977;49.414;11.010;2023-12-28T07:38:16;3.70;99.90
54461;DHT22;69977;49.414;11.010;2023-12-28T07:40:42;3.80;99.90
54461;DHT22;69977;49.414;11.010;2023-12-28T07:43:08;3.80;99.90
54461;DHT22;69977;49.414;11.010;2023-12-28T07:45:34;3.90;99.90
54461;DHT22;69977;49.414;11.010;2023-12-28T07:48:00;3.90;99.90
54461;DHT22;69977;49.414;11.010;2023-12-28T07:50:26;4.00;99.90
54461;DHT22;69977;49.414;11.010;2023-12-28T07:52:52;4.00;99.90
54461;DHT22;69977;49.414;11.010;2023-12-28T07:55:18;4.00;99.90
54461;DHT22;69977;49.414;11.010;2023-12-28T07:57:44;4.10;99.90
54461;DHT22;69977;49.414;11.010;2023-12-28T08:00:10;4.10;99.90
54461;DHT22;69977;49.414;11.010;2023-12-28T08:02:36;4.10;99.90
54461;DHT22;69977;49.414;11.010;2023-12-28T08:05:03;4.10;99.90
54461;DHT22;69977;49.414;11.010;2023-12-28T08:07:28;4.10;99.90
54461;DHT22;69977;49.414;11.010;2023-12-28T08:09:54;4.10;99.90
54461;DHT22;69977;49.414;11.010;2023-12-28T08:12:20;4.20;99.90
54461;DHT22;69977;49.414;11.010;2023-12-28T08:14:50;4.20;99.90
54461;DHT22;69977;49.414;11.010;2023-12-28T08:17:16;4.30;99.90
54461;DHT22;69977;49.414;11.010;2023-12-28T08:19:42;4.30;99.90
54461;DHT22;69977;49.414;11.010;2023-12-28T08:22:08;4.40;99.90
54461;DHT22;69977;49.414;11.010;2023-12-28T08:24:33;4.30;99.90
54461;DHT22;69977;49.414;11.010;2023-12-28T08:27:01;4.30;99.90
54461;DHT22;69977;49.414;11.010;2023-12-28T08:29:28;4.30;99.90
54461;DHT22;69977;49.414;11.010;2023-12-28T08:31:54;4.40;99.90
54461;DHT22;69977;49.414;11.010;2023-12-28T08:34:21;4.40;99.90
54461;DHT22;69977;49.414;11.010;2023-12-28T08:36:47;4.50;99.90
54461;DHT22;69977;49.414;11.010;2023-12-28T08:39:13;4.50;99.90
54461;DHT22;69977;49.414;11.010;2023-12-28T08:41:39;4.60;99.90
54461;DHT22;69977;49.414;11.010;2023-12-28T08:44:05;4.70;99.90
54461;DHT22;69977;49.414;11.010;2023-12-28T08:46:30;4.70;99.90
54461;DHT22;69977;49.414;11.010;2023-12-28T08:48:56;4.70;99.90
54461;DHT22;69977;49.414;11.010;2023-12-28T08:51:22;4.80;99.90
54461;DHT22;69977;49.414;11.010;2023-12-28T08:53:48;4.80;99.90
54461;DHT22;69977;49.414;11.010;2023-12-28T08:56:19;4.90;99.90
54461;DHT22;69977;49.414;11.010;2023-12-28T08:58:46;4.90;99.90
54461;DHT22;69977;49.414;11.010;2023-12-28T09:01:22;4.90;99.90
54461;DHT22;69977;49.414;11.010;2023-12-28T09:03:51;4.90;99.90
54461;DHT22;69977;49.414;11.010;2023-12-28T09:06:18;4.90;99.90
54461;DHT22;69977;49.414;11.010;2023-12-28T09:08:46;5.00;99.90
54461;DHT22;69977;49.414;11.010;2023-12-28T09:11:13;5.10;99.90
54461;DHT22;69977;49.414;11.010;2023-12-28T09:13:40;5.10;99.90
54461;DHT22;69977;49.414;11.010;2023-12-28T09:16:14;5.10;99.90
54461;DHT22;69977;49.414;11.010;2023-12-28T09:18:40;5.10;99.90
54461;DHT22;69977;49.414;11.010;2023-12-28T09:21:08;5.20;99.90
54461;DHT22;69977;49.414;11.010;2023-12-28T09:23:34;5.20;99.90
54461;DHT22;69977;49.414;11.010;2023-12-28T09:26:02;5.20;99.90
54461;DHT22;69977;49.414;11.010;2023-12-28T09:28:31;5.20;99.90
54461;DHT22;69977;49.414;11.010;2023-12-28T09:30:57;5.30;99.90
54461;DHT22;69977;49.414;11.010;2023-12-28T09:33:23;5.30;99.90
54461;DHT22;69977;49.414;11.010;2023-12-28T09:35:49;5.30;99.90
54461;DHT22;69977;49.414;11.010;2023-12-28T09:38:15;5.30;99.90
54461;DHT22;69977;49.414;11.010;2023-12-28T09:40:42;5.30;99.90
54461;DHT22;69977;49.414;11.010;2023-12-28T09:45:48;5.40;99.90
54461;DHT22;69977;49.414;11.010;2023-12-28T09:48:16;5.40;99.90
54461;DHT22;69977;49.414;11.010;2023-12-28T09:50:44;5.50;99.90
54461;DHT22;69977;49.414;11.010;2023-12-28T09:53:10;5.50;99.90
54461;DHT22;69977;49.414;11.010;2023-12-28T09:55:36;5.60;99.90
54461;DHT22;69977;49.414;11.010;2023-12-28T09:58:04;5.70;99.90
54461;DHT22;69977;49.414;11.010;2023-12-28T10:00:32;5.70;99.90
54461;DHT22;69977;49.414;11.010;2023-12-28T10:02:58;5.60;99.90
54461;DHT22;69977;49.414;11.010;2023-12-28T10:05:23;5.70;99.90
54461;DHT22;69977;49.414;11.010;2023-12-28T10:07:50;5.70;99.90
54461;DHT22;69977;49.414;11.010;2023-12-28T10:10:16;5.70;99.90
54461;DHT22;69977;49.414;11.010;2023-12-28T10:12:43;5.70;99.90
54461;DHT22;69977;49.414;11.010;2023-12-28T10:15:09;5.80;99.90
54461;DHT22;69977;49.414;11.010;2023-12-28T10:17:35;5.90;99.90
54461;DHT22;69977;49.414;11.010;2023-12-28T10:20:04;6.00;99.90
54461;DHT22;69977;49.414;11.010;2023-12-28T10:22:37;6.10;99.90
54461;DHT22;69977;49.414;11.010;2023-12-28T10:25:03;6.20;99.90
54461;DHT22;69977;49.414;11.010;2023-12-28T10:27:30;6.20;99.90
54461;DHT22;69977;49.414;11.010;2023-12-28T10:29:56;6.30;99.90
54461;DHT22;69977;49.414;11.010;2023-12-28T10:32:23;6.40;99.90
54461;DHT22;69977;49.414;11.010;2023-12-28T10:34:53;6.40;99.90
54461;DHT22;69977;49.414;11.010;2023-12-28T10:37:20;6.50;99.90
54461;DHT22;69977;49.414;11.010;2023-12-28T10:39:47;6.60;99.90
54461;DHT22;69977;49.414;11.010;2023-12-28T10:42:27;6.60;99.90
54461;DHT22;69977;49.414;11.010;2023-12-28T10:45:03;6.60;99.90
54461;DHT22;69977;49.414;11.010;2023-12-28T10:47:32;6.60;99.90
54461;DHT22;69977;49.414;11.010;2023-12-28T10:50:03;6.60;99.90
54461;DHT22;69977;49.414;11.010;2023-12-28T10:52:31;6.70;99.90
54461;DHT22;69977;49.414;11.010;2023-12-28T10:55:36;6.80;99.90
54461;DHT22;69977;49.414;11.010;2023-12-28T10:58:12;6.80;99.90
54461;DHT22;69977;49.414;11.010;2023-12-28T11:00:46;6.90;99.90
54461;DHT22;69977;49.414;11.010;2023-12-28T11:03:17;6.90;99.90
54461;DHT22;69977;49.414;11.010;2023-12-28T11:05:45;7.10;99.90
54461;DHT22;69977;49.414;11.010;2023-12-28T11:08:13;7.20;99.90
54461;DHT22;69977;49.414;11.010;2023-12-28T11:10:41;7.30;99.90
54461;DHT22;69977;49.414;11.010;2023-12-28T11:13:08;7.30;99.90
54461;DHT22;69977;49.414;11.010;2023-12-28T11:15:38;7.40;99.90
54461;DHT22;69977;49.414;11.010;2023-12-28T11:18:04;7.40;99.90
54461;DHT22;69977;49.414;11.010;2023-12-28T11:20:30;7.40;99.90
54461;DHT22;69977;49.414;11.010;2023-12-28T11:22:57;7.50;99.90
54461;DHT22;69977;49.414;11.010;2023-12-28T11:25:23;7.60;99.90
54461;DHT22;69977;49.414;11.010;2023-12-28T11:27:49;7.60;99.90
54461;DHT22;69977;49.414;11.010;2023-12-28T11:30:15;7.70;99.90
54461;DHT22;69977;49.414;11.010;2023-12-28T11:32:42;7.90;99.90
54461;DHT22;69977;49.414;11.010;2023-12-28T11:35:11;8.10;99.90
54461;DHT22;69977;49.414;11.010;2023-12-28T11:37:38;8.30;99.90
54461;DHT22;69977;49.414;11.010;2023-12-28T11:40:13;8.40;99.90
54461;DHT22;69977;49.414;11.010;2023-12-28T11:42:52;8.50;99.90
54461;DHT22;69977;49.414;11.010;2023-12-28T11:45:19;8.50;99.90
54461;DHT22;69977;49.414;11.010;2023-12-28T11:47:45;8.50;99.90
54461;DHT22;69977;49.414;11.010;2023-12-28T11:50:12;8.50;99.90
54461;DHT22;69977;49.414;11.010;2023-12-28T11:52:39;8.60;99.90
54461;DHT22;69977;49.414;11.010;2023-12-28T11:55:05;8.50;99.90
54461;DHT22;69977;49.414;11.010;2023-12-28T11:57:31;8.40;99.90
54461;DHT22;69977;49.414;11.010;2023-12-28T12:00:01;8.30;99.90
54461;DHT22;69977;49.414;11.010;2023-12-28T12:02:30;8.20;99.90
54461;DHT22;69977;49.414;11.010;2023-12-28T12:04:56;8.10;99.90
54461;DHT22;69977;49.414;11.010;2023-12-28T12:07:27;8.10;99.90
54461;DHT22;69977;49.414;11.010;2023-12-28T12:09:59;8.10;99.90
54461;DHT22;69977;49.414;11.010;2023-12-28T12:12:25;8.20;99.90
54461;DHT22;69977;49.414;11.010;2023-12-28T12:14:52;8.10;99.90
54461;DHT22;69977;49.414;11.010;2023-12-28T12:17:18;8.10;99.90
54461;DHT22;69977;49.414;11.010;2023-12-28T12:19:45;8.10;99.90
54461;DHT22;69977;49.414;11.010;2023-12-28T12:22:15;8.10;99.90
54461;DHT22;69977;49.414;11.010;2023-12-28T12:24:44;8.10;99.90
54461;DHT22;69977;49.414;11.010;2023-12-28T12:27:10;8.10;99.90
54461;DHT22;69977;49.414;11.010;2023-12-28T12:29:35;8.10;99.90
54461;DHT22;69977;49.414;11.010;2023-12-28T12:32:01;8.10;99.90
54461;DHT22;69977;49.414;11.010;2023-12-28T12:34:28;8.00;99.90
54461;DHT22;69977;49.414;11.010;2023-12-28T12:36:54;8.00;99.90
54461;DHT22;69977;49.414;11.010;2023-12-28T12:39:23;7.90;99.90
54461;DHT22;69977;49.414;11.010;2023-12-28T12:41:49;7.90;99.90
54461;DHT22;69977;49.414;11.010;2023-12-28T12:44:15;8.00;99.90
54461;DHT22;69977;49.414;11.010;2023-12-28T12:46:44;8.00;99.90
54461;DHT22;69977;49.414;11.010;2023-12-28T12:49:10;8.00;99.90
54461;DHT22;69977;49.414;11.010;2023-12-28T12:51:36;8.00;99.90
54461;DHT22;69977;49.414;11.010;2023-12-28T12:54:03;8.00;99.90
54461;DHT22;69977;49.414;11.010;2023-12-28T12:56:30;8.00;99.90
54461;DHT22;69977;49.414;11.010;2023-12-28T12:58:56;7.90;99.90
54461;DHT22;69977;49.414;11.010;2023-12-28T13:01:25;8.00;99.90
54461;DHT22;69977;49.414;11.010;2023-12-28T13:03:51;8.00;99.90
54461;DHT22;69977;49.414;11.010;2023-12-28T13:06:17;8.00;99.90
54461;DHT22;69977;49.414;11.010;2023-12-28T13:08:43;8.10;99.90
54461;DHT22;69977;49.414;11.010;2023-12-28T13:11:09;8.20;99.90
54461;DHT22;69977;49.414;11.010;2023-12-28T13:13:35;8.20;99.90
54461;DHT22;69977;49.414;11.010;2023-12-28T13:16:02;8.20;99.90
54461;DHT22;69977;49.414;11.010;2023-12-28T13:18:28;8.20;99.90
54461;DHT22;69977;49.414;11.010;2023-12-28T13:20:54;8.20;99.90
54461;DHT22;69977;49.414;11.010;2023-12-28T13:23:20;8.20;99.90
54461;DHT22;69977;49.414;11.010;2023-12-28T13:25:46;8.10;99.90
54461;DHT22;69977;49.414;11.010;2023-12-28T13:28:12;8.10;99.90
54461;DHT22;69977;49.414;11.010;2023-12-28T13:30:39;8.10;99.90
54461;DHT22;69977;49.414;11.010;2023-12-28T13:33:05;8.10;99.90
54461;DHT22;69977;49.414;11.010;2023-12-28T13:35:32;8.10;99.90
54461;DHT22;69977;49.414;11.010;2023-12-28T13:38:00;8.10;99.90
54461;DHT22;69977;49.414;11.010;2023-12-28T13:40:29;8.20;99.90
54461;DHT22;69977;49.414;11.010;2023-12-28T13:42:56;8.20;99.90
54461;DHT22;69977;49.414;11.010;2023-12-28T13:45:22;8.10;99.90
54461;DHT22;69977;49.414;11.010;2023-12-28T13:47:48;8.00;99.90
54461;DHT22;69977;49.414;11.010;2023-12-28T13:50:14;8.10;99.90
54461;DHT22;69977;49.414;11.010;2023-12-28T13:52:40;8.10;99.90
54461;DHT22;69977;49.414;11.010;2023-12-28T13:55:07;8.00;99.90
54461;DHT22;69977;49.414;11.010;2023-12-28T13:57:32;7.90;99.90
54461;DHT22;69977;49.414;11.010;2023-12-28T13:59:58;7.90;99.90
54461;DHT22;69977;49.414;11.010;2023-12-28T14:02:29;7.80;99.90
54461;DHT22;69977;49.414;11.010;2023-12-28T14:04:55;7.80;99.90
54461;DHT22;69977;49.414;11.010;2023-12-28T14:07:22;7.70;99.90
54461;DHT22;69977;49.414;11.010;2023-12-28T14:09:48;7.80;99.90
54461;DHT22;69977;49.414;11.010;2023-12-28T14:12:14;7.80;99.90
54461;DHT22;69977;49.414;11.010;2023-12-28T14:14:40;7.70;99.90
54461;DHT22;69977;49.414;11.010;2023-12-28T14:17:06;7.70;99.90
54461;DHT22;69977;49.414;11.010;2023-12-28T14:19:32;7.70;99.90
54461;DHT22;69977;49.414;11.010;2023-12-28T14:21:59;7.70;99.90
54461;DHT22;69977;49.414;11.010;2023-12-28T14:24:25;7.70;99.90
54461;DHT22;69977;49.414;11.010;2023-12-28T14:26:53;7.60;99.90
54461;DHT22;69977;49.414;11.010;2023-12-28T14:29:20;7.60;99.90
54461;DHT22;69977;49.414;11.010;2023-12-28T14:31:47;7.60;99.90
54461;DHT22;69977;49.414;11.010;2023-12-28T14:34:13;7.60;99.90
54461;DHT22;69977;49.414;11.010;2023-12-28T14:36:39;7.60;99.90
54461;DHT22;69977;49.414;11.010;2023-12-28T14:39:07;7.60;99.90
54461;DHT22;69977;49.414;11.010;2023-12-28T14:41:37;7.50;99.90
54461;DHT22;69977;49.414;11.010;2023-12-28T14:44:03;7.50;99.90
54461;DHT22;69977;49.414;11.010;2023-12-28T14:46:30;7.50;99.90
54461;DHT22;69977;49.414;11.010;2023-12-28T14:48:56;7.40;99.90
54461;DHT22;69977;49.414;11.010;2023-12-28T14:51:22;7.40;99.90
54461;DHT22;69977;49.414;11.010;2023-12-28T14:53:48;7.40;99.90
54461;DHT22;69977;49.414;11.010;2023-12-28T14:56:15;7.40;99.90
54461;DHT22;69977;49.414;11.010;2023-12-28T14:58:44;7.50;99.90
54461;DHT22;69977;49.414;11.010;2023-12-28T15:01:13;7.50;99.90
54461;DHT22;69977;49.414;11.010;2023-12-28T15:03:39;7.50;99.90
54461;DHT22;69977;49.414;11.010;2023-12-28T15:06:06;7.50;99.90
54461;DHT22;69977;49.414;11.010;2023-12-28T15:08:32;7.50;99.90
54461;DHT22;69977;49.414;11.010;2023-12-28T15:10:58;7.50;99.90
54461;DHT22;69977;49.414;11.010;2023-12-28T15:13:26;7.40;99.90
54461;DHT22;69977;49.414;11.010;2023-12-28T15:15:52;7.40;99.90
54461;DHT22;69977;49.414;11.010;2023-12-28T15:18:18;7.50;99.90
54461;DHT22;69977;49.414;11.010;2023-12-28T15:20:48;7.50;99.90
54461;DHT22;69977;49.414;11.010;2023-12-28T15:23:17;7.50;99.90
54461;DHT22;69977;49.414;11.010;2023-12-28T15:25:45;7.50;99.90
54461;DHT22;69977;49.414;11.010;2023-12-28T15:28:11;7.60;99.90
54461;DHT22;69977;49.414;11.010;2023-12-28T15:30:37;7.70;99.90